createdAt,value
2023-01-02T00:01:37.420Z,0.60
2023-01-02T00:06:36.825Z,0.50
2023-01-02T00:09:06.396Z,1.38
2023-01-02T00:11:38.296Z,0.45
2023-01-02T00:14:06.141Z,1.00
2023-01-02T00:16:33.923Z,0.60
2023-01-02T00:19:01.801Z,1.25
2023-01-02T00:21:29.579Z,0.50
2023-01-02T00:23:59.807Z,0.40
2023-01-02T00:26:27.955Z,0.70
2023-01-02T00:28:55.765Z,0.50
2023-01-02T00:31:23.921Z,0.22
2023-01-02T00:33:51.803Z,0.80
2023-01-02T00:36:19.581Z,0.30
2023-01-02T00:38:49.746Z,0.55
2023-01-02T00:43:45.407Z,0.70
2023-01-02T00:46:13.382Z,0.50
2023-01-02T00:48:41.531Z,0.47
2023-01-02T00:51:09.783Z,0.50
2023-01-02T00:53:37.507Z,0.45
2023-01-02T00:56:05.459Z,0.45
2023-01-02T00:58:33.300Z,0.70
2023-01-02T01:01:01.129Z,0.90
2023-01-02T01:03:31.592Z,0.52
2023-01-02T01:05:59.511Z,0.73
2023-01-02T01:08:27.393Z,0.20
2023-01-02T01:10:55.124Z,0.40
2023-01-02T01:13:23.499Z,0.60
2023-01-02T01:15:51.476Z,0.63
2023-01-02T01:18:19.549Z,0.15
2023-01-02T01:20:47.286Z,0.38
2023-01-02T01:23:17.459Z,0.50
2023-01-02T01:28:17.746Z,0.47
2023-01-02T01:33:13.274Z,0.30
2023-01-02T01:35:43.739Z,0.70
2023-01-02T01:38:11.608Z,0.20
2023-01-02T01:40:39.833Z,0.38
2023-01-02T01:43:14.354Z,0.50
2023-01-02T01:45:45.468Z,0.55
2023-01-02T01:48:17.539Z,0.40
2023-01-02T01:50:45.492Z,0.35
2023-01-02T01:53:18.050Z,0.40
2023-01-02T01:55:48.685Z,0.32
2023-01-02T01:58:23.445Z,0.25
2023-01-02T02:00:52.426Z,0.40
2023-01-02T02:03:22.368Z,0.60
2023-01-02T02:05:52.773Z,0.57
2023-01-02T02:08:22.713Z,0.40
2023-01-02T02:10:52.020Z,1.52
2023-01-02T02:13:20.268Z,0.63
2023-01-02T02:15:55.117Z,0.20
2023-01-02T02:18:59.968Z,0.50
2023-01-02T02:21:56.543Z,0.40
2023-01-02T02:24:24.293Z,0.35
2023-01-02T02:26:58.191Z,0.55
2023-01-02T02:29:44.534Z,0.40
2023-01-02T02:32:21.117Z,0.65
2023-01-02T02:34:48.830Z,0.50
2023-01-02T02:37:26.248Z,0.40
2023-01-02T02:39:53.868Z,0.70
2023-01-02T02:42:27.672Z,0.45
2023-01-02T02:45:34.731Z,0.30
2023-01-02T02:48:21.098Z,0.45
2023-01-02T02:51:01.944Z,0.30
2023-01-02T02:53:43.765Z,0.25
2023-01-02T02:56:14.354Z,0.40
2023-01-02T02:58:42.748Z,0.40
2023-01-02T03:01:17.702Z,0.50
2023-01-02T03:03:45.664Z,0.47
2023-01-02T03:06:19.346Z,0.50
2023-01-02T03:08:56.224Z,0.40
2023-01-02T03:11:32.975Z,0.38
2023-01-02T03:14:24.376Z,0.50
2023-01-02T03:17:01.510Z,0.73
2023-01-02T03:19:33.151Z,1.13
2023-01-02T03:22:13.322Z,0.60
2023-01-02T03:24:42.350Z,0.32
2023-01-02T03:27:16.310Z,0.40
2023-01-02T03:29:48.014Z,0.30
2023-01-02T03:32:21.654Z,0.43
2023-01-02T03:34:49.947Z,0.60
2023-01-02T03:37:20.127Z,0.45
2023-01-02T03:42:36.137Z,0.40
2023-01-02T03:45:26.937Z,0.38
2023-01-02T03:48:03.881Z,0.60
2023-01-02T03:50:37.849Z,0.73
2023-01-02T03:53:05.746Z,0.30
2023-01-02T03:55:37.233Z,0.22
2023-01-02T03:58:10.987Z,0.40
2023-01-02T04:00:44.481Z,0.40
2023-01-02T04:03:21.835Z,0.40
2023-01-02T04:06:12.921Z,0.45
2023-01-02T04:08:55.618Z,0.30
2023-01-02T04:11:24.333Z,0.85
2023-01-02T04:13:59.532Z,0.38
2023-01-02T04:16:30.594Z,0.30
2023-01-02T04:19:27.315Z,0.73
2023-01-02T04:22:01.756Z,0.60
2023-01-02T04:24:32.101Z,0.32
2023-01-02T04:27:22.558Z,0.50
2023-01-02T04:29:50.446Z,0.60
2023-01-02T04:32:20.433Z,0.40
2023-01-02T04:34:49.412Z,0.20
2023-01-02T04:37:38.599Z,0.55
2023-01-02T04:40:16.008Z,0.35
2023-01-02T04:42:43.786Z,0.40
2023-01-02T04:45:11.856Z,0.47
2023-01-02T04:47:39.640Z,0.40
2023-01-02T04:50:10.679Z,0.35
2023-01-02T04:52:38.551Z,0.60
2023-01-02T04:55:10.117Z,0.40
2023-01-02T04:57:38.607Z,0.80
2023-01-02T05:00:09.550Z,0.40
2023-01-02T05:02:38.733Z,0.68
2023-01-02T05:05:07.172Z,0.50
2023-01-02T05:07:35.385Z,0.43
2023-01-02T05:10:03.770Z,0.47
2023-01-02T05:12:34.437Z,0.57
2023-01-02T05:15:02.285Z,0.70
2023-01-02T05:17:30.117Z,0.43
2023-01-02T05:20:01.065Z,0.40
2023-01-02T05:22:47.376Z,0.30
2023-01-02T05:25:15.171Z,0.38
2023-01-02T05:27:42.923Z,0.63
2023-01-02T05:30:11.268Z,0.60
2023-01-02T05:32:39.126Z,3.08
2023-01-02T05:35:07.119Z,0.40
2023-01-02T05:37:34.870Z,1.23
2023-01-02T05:40:05.160Z,1.10
2023-01-02T05:42:36.100Z,0.40
2023-01-02T05:45:03.997Z,0.93
2023-01-02T05:47:31.898Z,1.38
2023-01-02T05:49:59.747Z,0.55
2023-01-02T05:52:27.453Z,1.48
2023-01-02T05:54:55.317Z,1.60
2023-01-02T05:57:22.998Z,0.75
2023-01-02T05:59:50.810Z,0.68
2023-01-02T06:02:18.583Z,1.65
2023-01-02T06:04:46.387Z,1.30
2023-01-02T06:07:14.277Z,0.73
2023-01-02T06:09:42.051Z,1.80
2023-01-02T06:12:10.392Z,1.30
2023-01-02T06:14:38.261Z,2.95
2023-01-02T06:17:06.414Z,1.38
2023-01-02T06:19:34.325Z,3.42
2023-01-02T06:22:02.153Z,1.05
2023-01-02T06:24:30.125Z,1.35
2023-01-02T06:26:58.086Z,1.48
2023-01-02T06:29:25.877Z,4.88
2023-01-02T06:31:54.404Z,3.47
2023-01-02T06:34:22.334Z,1.70
2023-01-02T06:36:50.176Z,0.73
2023-01-02T06:39:18.087Z,2.50
2023-01-02T06:41:45.923Z,1.63
2023-01-02T06:44:14.336Z,4.15
2023-01-02T06:46:42.367Z,5.28
2023-01-02T06:49:10.095Z,2.05
2023-01-02T06:51:38.037Z,2.30
2023-01-02T06:54:05.835Z,3.35
2023-01-02T06:56:33.599Z,6.72
2023-01-02T06:59:03.717Z,5.13
2023-01-02T07:01:31.758Z,5.88
2023-01-02T07:03:59.721Z,1.42
2023-01-02T07:06:28.008Z,1.83
2023-01-02T07:08:55.917Z,2.90
2023-01-02T07:11:26.131Z,5.72
2023-01-02T07:16:25.805Z,3.05
2023-01-02T07:18:54.554Z,1.58
2023-01-02T07:21:22.635Z,15.73
2023-01-02T07:23:50.536Z,4.55
2023-01-02T07:26:18.437Z,3.35
2023-01-02T07:28:47.326Z,4.15
2023-01-02T07:31:17.982Z,2.67
2023-01-02T07:33:45.901Z,1.73
2023-01-02T07:36:17.980Z,1.50
2023-01-02T07:38:46.125Z,4.47
2023-01-02T07:41:18.134Z,2.83
2023-01-02T07:43:46.569Z,11.20
2023-01-02T07:46:15.653Z,5.03
2023-01-02T07:48:44.171Z,5.25
2023-01-02T07:51:12.483Z,4.15
2023-01-02T07:53:41.876Z,2.90
2023-01-02T07:56:09.917Z,2.72
2023-01-02T07:58:38.346Z,2.50
2023-01-02T08:01:11.270Z,1.90
2023-01-02T08:03:39.538Z,2.20
2023-01-02T08:06:08.141Z,1.38
2023-01-02T08:08:38.689Z,5.93
2023-01-02T08:11:10.671Z,5.93
2023-01-02T08:13:39.137Z,5.97
2023-01-02T08:16:11.342Z,3.38
2023-01-02T08:18:39.001Z,2.35
2023-01-02T08:21:07.693Z,3.22
2023-01-02T08:23:35.799Z,2.92
2023-01-02T08:26:05.957Z,6.65
2023-01-02T08:28:35.194Z,4.10
2023-01-02T08:31:02.978Z,6.22
2023-01-02T08:33:30.945Z,2.70
2023-01-02T08:35:58.797Z,2.22
2023-01-02T08:38:26.573Z,2.50
2023-01-02T08:40:54.432Z,1.85
2023-01-02T08:43:22.242Z,2.22
2023-01-02T08:45:52.768Z,4.97
2023-01-02T08:48:21.666Z,2.75
2023-01-02T08:50:51.066Z,3.90
2023-01-02T08:53:18.945Z,2.03
2023-01-02T08:55:46.707Z,1.85
2023-01-02T08:58:23.965Z,2.83
2023-01-02T09:00:53.351Z,2.85
2023-01-02T09:03:21.158Z,3.63
2023-01-02T09:05:49.093Z,2.80
2023-01-02T09:08:17.034Z,1.48
2023-01-02T09:10:45.339Z,2.47
2023-01-02T09:13:14.923Z,2.45
2023-01-02T09:15:46.073Z,3.80
2023-01-02T09:18:15.713Z,7.20
2023-01-02T09:20:43.814Z,2.42
2023-01-02T09:23:11.732Z,2.85
2023-01-02T09:25:39.662Z,2.22
2023-01-02T09:28:07.446Z,4.25
2023-01-02T09:30:35.317Z,4.03
2023-01-02T09:33:03.205Z,8.88
2023-01-02T09:35:30.864Z,6.05
2023-01-02T09:37:58.638Z,4.22
2023-01-02T09:40:26.565Z,7.28
2023-01-02T09:42:56.782Z,3.05
2023-01-02T09:47:54.875Z,4.95
2023-01-02T09:52:58.932Z,6.00
2023-01-02T09:55:29.770Z,3.55
2023-01-02T09:58:03.117Z,9.52
2023-01-02T10:00:35.708Z,4.25
2023-01-02T10:03:20.739Z,3.90
2023-01-02T10:06:07.884Z,3.55
2023-01-02T10:08:53.993Z,4.85
2023-01-02T10:11:27.928Z,3.00
2023-01-02T10:14:19.755Z,3.05
2023-01-02T10:16:50.287Z,2.75
2023-01-02T10:19:27.943Z,4.68
2023-01-02T10:21:58.702Z,3.63
2023-01-02T10:24:38.683Z,3.15
2023-01-02T10:27:07.205Z,4.20
2023-01-02T10:29:41.301Z,4.65
2023-01-02T10:32:14.294Z,3.55
2023-01-02T10:34:44.994Z,2.78
2023-01-02T10:37:17.094Z,5.20
2023-01-02T10:39:45.684Z,5.07
2023-01-02T10:42:14.354Z,2.67
2023-01-02T10:44:44.702Z,3.40
2023-01-02T10:47:32.342Z,2.60
2023-01-02T10:50:00.663Z,6.13
2023-01-02T10:52:38.797Z,4.35
2023-01-02T10:55:06.876Z,6.65
2023-01-02T10:57:51.508Z,4.00
2023-01-02T11:00:25.707Z,3.33
2023-01-02T11:05:31.808Z,4.43
2023-01-02T11:08:00.363Z,2.97
2023-01-02T11:10:34.341Z,4.57
2023-01-02T11:13:15.939Z,7.57
2023-01-02T11:16:05.281Z,8.45
2023-01-02T11:18:34.460Z,4.63
2023-01-02T11:21:05.608Z,4.47
2023-01-02T11:23:48.542Z,5.20
2023-01-02T11:26:25.439Z,4.20
2023-01-02T11:28:54.647Z,8.13
2023-01-02T11:31:22.976Z,7.13
2023-01-02T11:33:51.067Z,3.83
2023-01-02T11:36:20.381Z,3.65
2023-01-02T11:39:02.069Z,4.05
2023-01-02T11:41:52.515Z,10.63
2023-01-02T11:44:29.296Z,7.03
2023-01-02T11:46:57.638Z,3.17
2023-01-02T11:49:27.813Z,7.55
2023-01-02T11:51:58.672Z,4.45
2023-01-02T11:54:53.186Z,4.65
2023-01-02T11:57:32.135Z,3.83
2023-01-02T12:00:02.510Z,5.43
2023-01-02T12:02:39.894Z,4.38
2023-01-02T12:05:26.154Z,5.60
2023-01-02T12:08:01.423Z,5.43
2023-01-02T12:11:27.308Z,5.13
2023-01-02T12:14:50.767Z,10.23
2023-01-02T12:17:21.986Z,8.70
2023-01-02T12:20:25.425Z,5.05
2023-01-02T12:23:02.301Z,9.45
2023-01-02T12:25:39.231Z,4.90
2023-01-02T12:28:16.087Z,8.80
2023-01-02T12:31:16.712Z,6.88
2023-01-02T12:34:19.171Z,4.70
2023-01-02T12:37:09.859Z,3.75
2023-01-02T12:39:50.235Z,4.55
2023-01-02T12:42:43.283Z,2.65
2023-01-02T12:45:48.079Z,3.60
2023-01-02T12:48:56.987Z,3.75
2023-01-02T12:51:56.891Z,5.45
2023-01-02T12:54:30.160Z,3.88
2023-01-02T12:56:57.621Z,3.65
2023-01-02T12:59:47.100Z,4.55
2023-01-02T13:02:55.219Z,5.22
2023-01-02T13:05:31.177Z,4.82
2023-01-02T13:08:13.275Z,3.67
2023-01-02T13:10:41.556Z,5.05
2023-01-02T13:13:12.537Z,5.45
2023-01-02T13:15:45.660Z,4.43
2023-01-02T13:18:22.285Z,9.13
2023-01-02T13:21:01.573Z,3.58
2023-01-02T13:23:35.899Z,4.13
2023-01-02T13:26:15.815Z,3.78
2023-01-02T13:29:06.865Z,2.80
2023-01-02T13:31:48.384Z,4.20
2023-01-02T13:34:26.861Z,5.50
2023-01-02T13:37:10.503Z,2.58
2023-01-02T13:39:49.181Z,5.95
2023-01-02T13:42:45.342Z,2.58
2023-01-02T13:45:25.149Z,4.25
2023-01-02T13:47:56.762Z,4.35
2023-01-02T13:50:31.500Z,5.47
2023-01-02T13:53:10.975Z,3.15
2023-01-02T13:55:41.447Z,6.32
2023-01-02T13:58:18.531Z,4.50
2023-01-02T14:00:56.620Z,6.40
2023-01-02T14:03:24.468Z,5.57
2023-01-02T14:05:59.036Z,4.32
2023-01-02T14:08:35.611Z,4.13
2023-01-02T14:11:08.052Z,3.67
2023-01-02T14:13:39.010Z,3.97
2023-01-02T14:17:00.415Z,3.58
2023-01-02T14:19:28.235Z,3.65
2023-01-02T14:21:59.003Z,3.08
2023-01-02T14:24:40.229Z,3.67
2023-01-02T14:27:18.482Z,2.78
2023-01-02T14:29:53.340Z,4.50
2023-01-02T14:32:43.866Z,5.38
2023-01-02T14:35:14.344Z,2.58
2023-01-02T14:37:48.538Z,3.42
2023-01-02T14:40:23.432Z,4.85
2023-01-02T14:43:23.081Z,3.35
2023-01-02T14:46:17.105Z,3.50
2023-01-02T14:48:58.510Z,1.65
2023-01-02T14:51:37.513Z,3.40
2023-01-02T14:54:09.849Z,2.80
2023-01-02T14:56:40.896Z,2.33
2023-01-02T14:59:19.782Z,2.53
2023-01-02T15:01:55.267Z,2.60
2023-01-02T15:04:39.175Z,3.70
2023-01-02T15:07:14.981Z,1.92
2023-01-02T15:09:53.986Z,2.72
2023-01-02T15:12:43.726Z,2.85
2023-01-02T15:15:16.643Z,2.33
2023-01-02T15:17:49.336Z,2.50
2023-01-02T15:20:25.989Z,2.67
2023-01-02T15:22:54.529Z,8.40
2023-01-02T15:25:38.274Z,2.85
2023-01-02T15:28:07.674Z,3.03
2023-01-02T15:30:40.298Z,1.65
2023-01-02T15:33:25.943Z,2.97
2023-01-02T15:36:06.504Z,7.40
2023-01-02T15:38:34.746Z,5.13
2023-01-02T15:41:03.013Z,3.70
2023-01-02T15:43:52.899Z,2.30
2023-01-02T15:46:21.396Z,2.97
2023-01-02T15:48:49.696Z,0.80
2023-01-02T15:51:40.234Z,1.60
2023-01-02T15:54:13.479Z,0.73
2023-01-02T15:56:41.654Z,1.70
2023-01-02T15:59:30.607Z,2.15
2023-01-02T16:01:58.682Z,1.05
2023-01-02T16:04:29.169Z,4.03
2023-01-02T16:07:00.350Z,1.40
2023-01-02T16:09:33.714Z,2.90
2023-01-02T16:12:03.389Z,1.27
2023-01-02T16:14:42.161Z,6.18
2023-01-02T16:17:26.006Z,1.60
2023-01-02T16:19:58.950Z,10.23
2023-01-02T16:22:32.290Z,2.72
2023-01-02T16:25:18.859Z,3.63
2023-01-02T16:27:57.018Z,3.80
2023-01-02T16:30:41.195Z,2.08
2023-01-02T16:33:25.091Z,5.45
2023-01-02T16:36:01.176Z,5.32
2023-01-02T16:41:05.181Z,2.50
2023-01-02T16:43:41.018Z,1.27
2023-01-02T16:46:14.813Z,1.23
2023-01-02T16:48:43.838Z,3.45
2023-01-02T16:51:11.692Z,1.50
2023-01-02T16:53:43.569Z,1.27
2023-01-02T16:56:12.484Z,1.45
2023-01-02T16:58:40.292Z,3.67
2023-01-02T17:01:12.190Z,0.98
2023-01-02T17:03:39.983Z,0.77
2023-01-02T17:06:11.828Z,1.35
2023-01-02T17:08:40.312Z,1.48
2023-01-02T17:11:08.993Z,1.13
2023-01-02T17:13:36.831Z,2.50
2023-01-02T17:16:07.559Z,1.83
2023-01-02T17:18:37.717Z,0.90
2023-01-02T17:23:34.003Z,1.05
2023-01-02T17:26:02.182Z,1.25
2023-01-02T17:28:30.582Z,1.35
2023-01-02T17:30:58.363Z,1.90
2023-01-02T17:33:26.302Z,0.73
2023-01-02T17:35:54.217Z,0.90
2023-01-02T17:38:22.121Z,0.70
2023-01-02T17:40:49.889Z,0.65
2023-01-02T17:43:17.667Z,1.48
2023-01-02T17:45:45.654Z,0.90
2023-01-02T17:48:17.257Z,0.32
2023-01-02T17:50:51.634Z,1.75
2023-01-02T17:53:20.702Z,0.60
2023-01-02T17:56:20.501Z,0.88
2023-01-02T17:58:44.610Z,0.70
2023-01-02T18:01:17.562Z,0.50
2023-01-02T18:03:45.721Z,0.60
2023-01-02T18:06:13.535Z,0.75
2023-01-02T18:08:41.640Z,0.70
2023-01-02T18:11:12.772Z,0.63
2023-01-02T18:13:51.665Z,0.80
2023-01-02T18:16:24.350Z,1.15
2023-01-02T18:18:55.598Z,0.63
2023-01-02T18:21:26.080Z,1.98
2023-01-02T18:23:58.698Z,0.57
2023-01-02T18:26:26.551Z,0.88
2023-01-02T18:29:09.768Z,0.50
2023-01-02T18:31:44.870Z,0.60
2023-01-02T18:34:46.641Z,0.80
2023-01-02T18:37:38.047Z,0.70
2023-01-02T18:40:15.288Z,0.73
2023-01-02T18:42:45.481Z,0.60
2023-01-02T18:45:20.716Z,0.52
2023-01-02T18:47:53.756Z,0.77
2023-01-02T18:50:35.589Z,0.70
2023-01-02T18:53:16.959Z,0.55
2023-01-02T18:55:45.029Z,0.98
2023-01-02T18:58:18.492Z,1.13
2023-01-02T19:00:47.178Z,0.70
2023-01-02T19:03:25.724Z,1.00
2023-01-02T19:05:53.540Z,0.95
2023-01-02T19:08:25.354Z,0.52
2023-01-02T19:10:56.499Z,0.55
2023-01-02T19:13:25.228Z,1.10
2023-01-02T19:15:59.356Z,0.70
2023-01-02T19:18:30.143Z,0.82
2023-01-02T19:21:26.895Z,0.80
2023-01-02T19:24:00.611Z,0.43
2023-01-02T19:26:37.786Z,1.02
2023-01-02T19:29:22.923Z,0.63
2023-01-02T19:32:15.081Z,0.70
2023-01-02T19:34:52.958Z,0.77
2023-01-02T19:37:40.943Z,1.10
2023-01-02T19:40:19.393Z,0.77
2023-01-02T19:42:48.486Z,0.88
2023-01-02T19:45:21.983Z,0.98
2023-01-02T19:47:50.265Z,1.08
2023-01-02T19:50:20.363Z,0.90
2023-01-02T19:52:48.291Z,0.52
2023-01-02T19:55:17.923Z,0.63
2023-01-02T19:57:46.485Z,0.70
2023-01-02T20:00:16.463Z,0.90
2023-01-02T20:02:53.667Z,0.77
2023-01-02T20:05:22.798Z,0.90
2023-01-02T20:07:51.636Z,0.60
2023-01-02T20:10:19.449Z,0.80
2023-01-02T20:12:47.629Z,0.65
2023-01-02T20:15:17.859Z,0.80
2023-01-02T20:17:46.157Z,0.80
2023-01-02T20:20:16.591Z,0.85
2023-01-02T20:22:44.497Z,1.15
2023-01-02T20:25:16.019Z,0.60
2023-01-02T20:27:43.691Z,1.08
2023-01-02T20:30:12.214Z,0.77
2023-01-02T20:32:40.976Z,0.98
2023-01-02T20:35:08.994Z,1.02
2023-01-02T20:37:36.772Z,0.95
2023-01-02T20:40:05.041Z,0.70
2023-01-02T20:42:33.110Z,1.00
2023-01-02T20:45:00.578Z,0.85
2023-01-02T20:47:28.297Z,1.67
2023-01-02T20:49:56.052Z,0.90
2023-01-02T20:52:23.820Z,1.05
2023-01-02T20:54:51.680Z,0.73
2023-01-02T20:57:19.445Z,1.00
2023-01-02T20:59:47.144Z,0.90
2023-01-02T21:02:14.968Z,0.85
2023-01-02T21:04:42.730Z,0.82
2023-01-02T21:07:10.648Z,0.82
2023-01-02T21:09:38.413Z,1.00
2023-01-02T21:12:26.788Z,1.00
2023-01-02T21:14:54.747Z,0.98
2023-01-02T21:17:22.474Z,0.98
2023-01-02T21:19:50.335Z,0.95
2023-01-02T21:22:19.652Z,1.00
2023-01-02T21:24:47.693Z,0.95
2023-01-02T21:27:15.478Z,0.90
2023-01-02T21:29:45.681Z,1.17
2023-01-02T21:34:41.282Z,0.60
2023-01-02T21:37:08.882Z,0.82
2023-01-02T21:39:36.788Z,1.52
2023-01-02T21:42:16.197Z,0.70
2023-01-02T21:44:47.906Z,0.82
2023-01-02T21:47:17.001Z,0.90
2023-01-02T21:49:48.213Z,1.30
2023-01-02T21:52:16.113Z,1.10
2023-01-02T21:54:43.738Z,1.60
2023-01-02T21:57:11.851Z,0.82
2023-01-02T21:59:39.557Z,0.77
2023-01-02T22:02:10.445Z,1.17
2023-01-02T22:04:41.222Z,1.73
2023-01-02T22:09:56.862Z,0.93
2023-01-02T22:12:26.335Z,1.02
2023-01-02T22:14:54.097Z,0.75
2023-01-02T22:17:21.842Z,1.15
2023-01-02T22:19:49.711Z,0.85
2023-01-02T22:22:20.383Z,0.93
2023-01-02T22:24:48.861Z,1.00
2023-01-02T22:27:19.554Z,1.20
2023-01-02T22:30:20.613Z,0.90
2023-01-02T22:32:37.265Z,1.02
2023-01-02T22:35:06.001Z,0.98
2023-01-02T22:37:34.006Z,0.90
2023-01-02T22:40:02.193Z,1.10
2023-01-02T22:43:07.422Z,1.13
2023-01-02T22:45:46.577Z,0.90
2023-01-02T22:48:37.983Z,0.70
2023-01-02T22:51:08.870Z,1.10
2023-01-02T22:53:40.977Z,0.80
2023-01-02T22:56:18.350Z,1.17
2023-01-02T22:58:48.627Z,1.23
2023-01-02T23:01:25.937Z,0.70
2023-01-02T23:03:55.975Z,1.15
2023-01-02T23:06:26.804Z,0.55
2023-01-02T23:08:54.514Z,0.98
2023-01-02T23:11:23.260Z,0.80
2023-01-02T23:13:56.331Z,0.60
2023-01-02T23:16:43.287Z,0.90
2023-01-02T23:19:19.322Z,1.05
2023-01-02T23:21:46.998Z,1.00
2023-01-02T23:24:16.783Z,0.98
2023-01-02T23:26:50.101Z,1.23
2023-01-02T23:29:19.194Z,0.90
2023-01-02T23:31:50.337Z,1.15
2023-01-02T23:34:23.490Z,0.70
2023-01-02T23:36:55.647Z,0.82
2023-01-02T23:39:26.064Z,2.13
2023-01-02T23:41:54.022Z,1.00
2023-01-02T23:44:22.567Z,1.02
2023-01-02T23:46:50.794Z,0.80
2023-01-02T23:49:18.890Z,0.90
2023-01-02T23:51:47.180Z,0.98
2023-01-02T23:54:16.421Z,0.95
2023-01-02T23:56:46.441Z,1.00
2023-01-02T23:59:17.262Z,0.80
